createdAt,value
2023-03-17T00:01:51.063Z,2.87
2023-03-17T00:04:20.040Z,9.27
2023-03-17T00:06:48.747Z,11.63
2023-03-17T00:09:18.185Z,9.47
2023-03-17T00:11:46.965Z,5.60
2023-03-17T00:14:16.744Z,3.63
2023-03-17T00:16:46.038Z,3.20
2023-03-17T00:19:16.707Z,3.43
2023-03-17T00:21:45.261Z,10.73
2023-03-17T00:24:17.287Z,17.20
2023-03-17T00:26:46.251Z,5.43
2023-03-17T00:29:16.231Z,6.67
2023-03-17T00:31:46.599Z,10.60
2023-03-17T00:34:16.799Z,4.67
2023-03-17T00:36:48.048Z,3.83
2023-03-17T00:39:17.221Z,3.30
2023-03-17T00:44:14.503Z,3.43
2023-03-17T00:46:43.118Z,3.17
2023-03-17T00:51:44.816Z,3.57
2023-03-17T00:54:13.736Z,5.07
2023-03-17T00:56:42.743Z,4.33
2023-03-17T00:59:18.878Z,4.20
2023-03-17T01:01:47.862Z,8.80
2023-03-17T01:04:18.134Z,6.80
2023-03-17T01:06:47.095Z,5.87
2023-03-17T01:09:16.086Z,6.33
2023-03-17T01:11:44.568Z,5.37
2023-03-17T01:14:13.091Z,5.63
2023-03-17T01:16:41.783Z,11.73
2023-03-17T01:19:11.621Z,12.07
2023-03-17T01:21:42.482Z,23.03
2023-03-17T01:24:10.953Z,14.70
2023-03-17T01:26:40.249Z,16.07
2023-03-17T01:29:08.726Z,10.37
2023-03-17T01:31:37.380Z,16.73
2023-03-17T01:34:06.254Z,9.70
2023-03-17T01:36:35.724Z,7.57
2023-03-17T01:39:07.413Z,8.40
2023-03-17T01:41:36.515Z,7.63
2023-03-17T01:44:04.978Z,9.50
2023-03-17T01:46:34.418Z,7.67
2023-03-17T01:49:06.559Z,8.37
2023-03-17T01:51:36.456Z,36.87
2023-03-17T01:54:08.409Z,37.00
2023-03-17T01:56:38.049Z,17.10
2023-03-17T01:59:09.639Z,15.77
2023-03-17T02:01:39.349Z,11.30
2023-03-17T02:04:07.985Z,13.90
2023-03-17T02:06:42.149Z,13.33
2023-03-17T02:09:17.388Z,14.00
2023-03-17T02:11:46.180Z,12.70
2023-03-17T02:14:14.734Z,13.20
2023-03-17T02:16:43.561Z,13.30
2023-03-17T02:19:12.688Z,10.67
2023-03-17T02:21:44.057Z,8.70
2023-03-17T02:24:19.178Z,3.53
2023-03-17T02:26:49.013Z,2.60
2023-03-17T02:29:17.958Z,2.83
2023-03-17T02:31:46.543Z,3.70
2023-03-17T02:34:15.805Z,4.50
2023-03-17T02:36:46.370Z,2.90
2023-03-17T02:39:14.893Z,2.63
2023-03-17T02:41:43.237Z,2.53
2023-03-17T02:44:12.010Z,3.10
2023-03-17T02:46:40.612Z,4.70
2023-03-17T02:49:09.411Z,3.30
2023-03-17T02:51:37.843Z,3.70
2023-03-17T02:54:07.586Z,5.10
2023-03-17T02:56:38.283Z,3.33
2023-03-17T02:59:07.173Z,2.80
2023-03-17T03:01:35.856Z,3.63
2023-03-17T03:04:04.497Z,3.00
2023-03-17T03:06:32.849Z,3.33
2023-03-17T03:09:01.750Z,2.90
2023-03-17T03:11:31.706Z,3.23
2023-03-17T03:14:00.145Z,3.03
2023-03-17T03:16:28.530Z,4.33
2023-03-17T03:18:56.946Z,2.50
2023-03-17T03:21:25.680Z,3.47
2023-03-17T03:23:54.370Z,3.90
2023-03-17T03:26:23.076Z,3.10
2023-03-17T03:28:53.843Z,4.23
2023-03-17T03:31:22.650Z,4.27
2023-03-17T03:33:51.314Z,3.00
2023-03-17T03:36:19.797Z,2.83
2023-03-17T03:38:48.250Z,5.70
2023-03-17T03:41:16.722Z,5.80
2023-03-17T03:43:45.085Z,5.63
2023-03-17T03:46:15.590Z,3.37
2023-03-17T03:48:44.126Z,4.37
2023-03-17T03:51:12.571Z,2.93
2023-03-17T03:53:41.052Z,3.10
2023-03-17T03:56:09.640Z,3.03
2023-03-17T03:58:38.130Z,3.43
2023-03-17T04:01:06.802Z,4.10
2023-03-17T04:03:36.816Z,3.57
2023-03-17T04:06:05.348Z,3.30
2023-03-17T04:08:33.736Z,2.93
2023-03-17T04:11:02.195Z,3.10
2023-03-17T04:13:30.607Z,3.37
2023-03-17T04:15:59.089Z,3.00
2023-03-17T04:18:27.507Z,2.87
2023-03-17T04:20:57.208Z,2.83
2023-03-17T04:23:25.549Z,2.40
2023-03-17T04:25:54.076Z,2.70
2023-03-17T04:28:23.117Z,3.60
2023-03-17T04:30:51.666Z,3.87
2023-03-17T04:33:20.418Z,3.30
2023-03-17T04:35:49.258Z,2.53
2023-03-17T04:38:19.077Z,2.67
2023-03-17T04:40:47.618Z,3.10
2023-03-17T04:43:16.818Z,5.63
2023-03-17T04:45:45.176Z,8.40
2023-03-17T04:48:13.572Z,7.10
2023-03-17T04:50:42.391Z,7.93
2023-03-17T04:53:10.798Z,7.13
2023-03-17T04:55:40.611Z,6.50
2023-03-17T04:58:10.360Z,3.00
2023-03-17T05:00:40.311Z,3.53
2023-03-17T05:03:20.234Z,3.13
2023-03-17T05:05:54.455Z,2.30
2023-03-17T05:08:22.924Z,2.93
2023-03-17T05:10:52.732Z,5.07
2023-03-17T05:13:21.125Z,2.27
2023-03-17T05:15:50.119Z,3.00
2023-03-17T05:18:18.637Z,2.60
2023-03-17T05:20:47.198Z,2.70
2023-03-17T05:23:15.650Z,2.70
2023-03-17T05:25:44.094Z,2.93
2023-03-17T05:28:14.197Z,2.57
2023-03-17T05:30:42.757Z,2.30
2023-03-17T05:33:11.222Z,3.27
2023-03-17T05:35:41.176Z,3.07
2023-03-17T05:38:09.818Z,3.33
2023-03-17T05:40:38.196Z,2.00
2023-03-17T05:43:07.062Z,4.50
2023-03-17T05:45:36.821Z,6.63
2023-03-17T05:48:05.384Z,9.80
2023-03-17T05:50:33.758Z,16.20
2023-03-17T05:53:02.143Z,10.97
2023-03-17T05:55:30.513Z,6.60
2023-03-17T05:58:00.873Z,9.03
2023-03-17T06:00:29.673Z,10.30
2023-03-17T06:02:59.540Z,7.27
2023-03-17T06:05:27.918Z,11.67
2023-03-17T06:07:56.666Z,11.60
2023-03-17T06:10:25.527Z,10.90
2023-03-17T06:12:54.035Z,3.17
2023-03-17T06:15:22.490Z,3.10
2023-03-17T06:17:51.792Z,2.10
2023-03-17T06:20:22.034Z,4.27
2023-03-17T06:23:03.422Z,3.20
2023-03-17T06:25:33.865Z,1.77
2023-03-17T06:28:03.780Z,3.00
2023-03-17T06:30:32.917Z,2.00
2023-03-17T06:33:01.709Z,1.90
2023-03-17T06:35:32.092Z,1.83
2023-03-17T06:38:01.000Z,3.23
2023-03-17T06:40:29.540Z,2.80
2023-03-17T06:42:57.919Z,5.50
2023-03-17T06:45:26.614Z,3.70
2023-03-17T06:47:55.183Z,3.10
2023-03-17T06:50:23.514Z,2.90
2023-03-17T06:52:53.285Z,3.80
2023-03-17T06:55:22.393Z,2.90
2023-03-17T06:57:51.431Z,2.13
2023-03-17T07:00:22.517Z,2.33
2023-03-17T07:02:51.318Z,3.10
2023-03-17T07:05:19.747Z,3.20
2023-03-17T07:07:48.103Z,3.50
2023-03-17T07:10:18.121Z,3.87
2023-03-17T07:12:46.976Z,6.43
2023-03-17T07:15:18.869Z,4.33
2023-03-17T07:17:47.875Z,4.87
2023-03-17T07:20:16.719Z,3.30
2023-03-17T07:22:45.226Z,4.23
2023-03-17T07:25:13.836Z,5.57
2023-03-17T07:27:43.653Z,4.03
2023-03-17T07:30:12.942Z,4.27
2023-03-17T07:32:41.879Z,5.30
2023-03-17T07:35:10.686Z,5.03
2023-03-17T07:37:39.165Z,2.60
2023-03-17T07:40:09.250Z,3.17
2023-03-17T07:42:37.663Z,2.30
2023-03-17T07:45:08.084Z,3.17
2023-03-17T07:47:36.373Z,3.00
2023-03-17T07:50:05.025Z,5.00
2023-03-17T07:52:34.376Z,3.10
2023-03-17T07:55:02.808Z,2.20
2023-03-17T07:57:31.205Z,2.10
2023-03-17T07:59:59.827Z,1.93
2023-03-17T08:02:29.862Z,2.30
2023-03-17T08:04:58.223Z,2.43
2023-03-17T08:07:26.687Z,3.67
2023-03-17T08:09:54.986Z,2.30
2023-03-17T08:12:23.454Z,2.40
2023-03-17T08:14:51.837Z,2.20
2023-03-17T08:17:21.038Z,2.57
2023-03-17T08:19:51.311Z,2.67
2023-03-17T08:22:19.831Z,1.60
2023-03-17T08:24:49.021Z,3.20
2023-03-17T08:27:18.237Z,4.17
2023-03-17T08:29:46.623Z,3.77
2023-03-17T08:32:15.253Z,5.60
2023-03-17T08:34:44.536Z,4.73
2023-03-17T08:37:14.468Z,2.90
2023-03-17T08:39:42.887Z,4.73
2023-03-17T08:42:11.901Z,3.30
2023-03-17T08:44:42.831Z,4.17
2023-03-17T08:47:12.337Z,5.03
2023-03-17T08:49:41.077Z,3.43
2023-03-17T08:52:10.021Z,5.40
2023-03-17T08:54:39.978Z,5.93
2023-03-17T08:57:08.370Z,9.00
2023-03-17T08:59:37.147Z,6.60
2023-03-17T09:02:05.869Z,6.33
2023-03-17T09:04:38.912Z,5.70
2023-03-17T09:07:09.697Z,5.10
2023-03-17T09:09:38.315Z,2.50
2023-03-17T09:12:09.446Z,5.40
2023-03-17T09:14:43.979Z,5.07
2023-03-17T09:17:13.974Z,6.10
2023-03-17T09:19:43.432Z,6.93
2023-03-17T09:22:14.517Z,4.90
2023-03-17T09:24:42.923Z,2.90
2023-03-17T09:27:12.770Z,2.40
2023-03-17T09:29:41.326Z,4.40
2023-03-17T09:32:09.770Z,6.53
2023-03-17T09:34:38.559Z,3.27
2023-03-17T09:37:06.996Z,4.67
2023-03-17T09:39:35.957Z,3.77
2023-03-17T09:42:11.579Z,2.77
2023-03-17T09:44:47.926Z,2.13
2023-03-17T09:47:23.962Z,2.93
2023-03-17T09:49:53.202Z,4.00
2023-03-17T09:52:27.367Z,3.30
2023-03-17T09:54:55.951Z,3.03
2023-03-17T09:57:27.701Z,3.50
2023-03-17T10:00:01.470Z,2.40
2023-03-17T10:02:31.606Z,2.73
2023-03-17T10:05:00.174Z,2.67
2023-03-17T10:07:33.355Z,3.30
2023-03-17T10:10:03.072Z,3.13
2023-03-17T10:12:40.564Z,3.13
2023-03-17T10:15:16.745Z,2.50
2023-03-17T10:17:46.238Z,2.63
2023-03-17T10:20:16.356Z,2.40
2023-03-17T10:22:48.049Z,2.97
2023-03-17T10:25:17.673Z,2.97
2023-03-17T10:27:48.853Z,2.17
2023-03-17T10:30:21.204Z,3.00
2023-03-17T10:32:50.064Z,2.07
2023-03-17T10:35:18.853Z,2.83
2023-03-17T10:37:49.249Z,3.63
2023-03-17T10:40:22.043Z,2.33
2023-03-17T10:42:51.772Z,2.90
2023-03-17T10:45:25.886Z,3.20
2023-03-17T10:47:57.214Z,2.70
2023-03-17T10:50:28.662Z,2.40
2023-03-17T10:53:00.628Z,2.03
2023-03-17T10:55:30.820Z,2.70
2023-03-17T10:58:02.833Z,1.80
2023-03-17T11:00:35.472Z,7.83
2023-03-17T11:03:10.894Z,2.20
2023-03-17T11:05:40.135Z,1.67
2023-03-17T11:08:10.841Z,4.33
2023-03-17T11:10:41.701Z,2.60
2023-03-17T11:13:10.480Z,2.60
2023-03-17T11:15:43.257Z,2.97
2023-03-17T11:18:16.031Z,3.17
2023-03-17T11:20:49.473Z,3.50
2023-03-17T11:23:22.369Z,2.27
2023-03-17T11:25:53.147Z,2.97
2023-03-17T11:28:22.504Z,3.70
2023-03-17T11:30:57.091Z,3.23
2023-03-17T11:33:34.721Z,3.10
2023-03-17T11:36:05.823Z,3.73
2023-03-17T11:38:36.252Z,2.00
2023-03-17T11:41:24.433Z,2.00
2023-03-17T11:44:01.632Z,2.00
2023-03-17T11:46:32.640Z,2.30
2023-03-17T11:49:05.075Z,2.23
2023-03-17T11:51:38.067Z,2.83
2023-03-17T11:54:09.769Z,1.80
2023-03-17T11:56:43.494Z,1.70
2023-03-17T11:59:29.533Z,1.83
2023-03-17T12:02:00.621Z,1.90
2023-03-17T12:04:34.448Z,3.20
2023-03-17T12:07:09.232Z,4.00
2023-03-17T12:09:41.200Z,2.60
2023-03-17T12:12:11.180Z,4.50
2023-03-17T12:14:41.781Z,2.47
2023-03-17T12:17:14.429Z,2.87
2023-03-17T12:19:44.343Z,3.77
2023-03-17T12:22:19.124Z,3.70
2023-03-17T12:24:51.447Z,4.30
2023-03-17T12:27:23.670Z,3.00
2023-03-17T12:29:53.935Z,3.70
2023-03-17T12:32:26.453Z,2.50
2023-03-17T12:34:57.520Z,2.80
2023-03-17T12:37:28.077Z,6.40
2023-03-17T12:40:00.751Z,2.87
2023-03-17T12:42:35.671Z,3.70
2023-03-17T12:45:27.981Z,2.03
2023-03-17T12:48:17.255Z,2.40
2023-03-17T12:51:09.801Z,3.53
2023-03-17T12:53:39.912Z,4.17
2023-03-17T12:56:12.748Z,6.53
2023-03-17T12:58:41.849Z,1.80
2023-03-17T13:01:17.332Z,7.13
2023-03-17T13:03:58.374Z,2.00
2023-03-17T13:06:27.046Z,2.37
2023-03-17T13:08:55.847Z,1.50
2023-03-17T13:11:29.563Z,2.50
2023-03-17T13:13:59.598Z,2.40
2023-03-17T13:16:29.382Z,2.57
2023-03-17T13:19:24.533Z,2.37
2023-03-17T13:22:21.171Z,1.90
2023-03-17T13:24:51.255Z,1.97
2023-03-17T13:27:38.145Z,1.80
2023-03-17T13:30:21.846Z,1.90
2023-03-17T13:32:57.083Z,3.13
2023-03-17T13:35:38.939Z,4.47
2023-03-17T13:38:25.943Z,2.23
2023-03-17T13:41:03.824Z,2.90
2023-03-17T13:43:53.042Z,3.57
2023-03-17T13:46:24.288Z,3.90
2023-03-17T13:48:54.685Z,1.77
2023-03-17T13:51:24.539Z,3.33
2023-03-17T13:53:56.464Z,1.90
2023-03-17T13:56:26.407Z,2.40
2023-03-17T13:59:09.598Z,1.97
2023-03-17T14:01:40.818Z,1.67
2023-03-17T14:04:14.477Z,1.77
2023-03-17T14:06:43.389Z,2.40
2023-03-17T14:09:20.287Z,2.90
2023-03-17T14:11:49.630Z,2.00
2023-03-17T14:14:32.690Z,2.90
2023-03-17T14:17:05.095Z,2.57
2023-03-17T14:19:33.544Z,1.90
2023-03-17T14:22:05.388Z,6.17
2023-03-17T14:24:35.773Z,2.23
2023-03-17T14:27:07.915Z,2.60
2023-03-17T14:29:36.494Z,2.10
2023-03-17T14:32:06.386Z,3.10
2023-03-17T14:34:34.883Z,2.67
2023-03-17T14:37:04.323Z,2.73
2023-03-17T14:39:33.058Z,2.47
2023-03-17T14:42:04.031Z,3.60
2023-03-17T14:44:39.542Z,2.30
2023-03-17T14:47:10.689Z,2.60
2023-03-17T14:49:39.835Z,2.27
2023-03-17T14:52:08.381Z,2.47
2023-03-17T14:54:37.490Z,2.50
2023-03-17T14:57:09.092Z,3.10
2023-03-17T14:59:38.580Z,2.60
2023-03-17T15:02:17.762Z,2.23
2023-03-17T15:04:52.200Z,3.93
2023-03-17T15:07:30.428Z,4.17
2023-03-17T15:10:03.012Z,6.90
2023-03-17T15:12:33.241Z,3.03
2023-03-17T15:15:03.866Z,2.80
2023-03-17T15:17:33.639Z,3.53
2023-03-17T15:20:04.526Z,2.70
2023-03-17T15:22:33.915Z,5.53
2023-03-17T15:25:03.417Z,2.20
2023-03-17T15:27:33.598Z,2.77
2023-03-17T15:30:02.493Z,2.57
2023-03-17T15:32:32.167Z,2.67
2023-03-17T15:35:00.677Z,2.17
2023-03-17T15:37:29.875Z,3.57
2023-03-17T15:39:58.508Z,2.47
2023-03-17T15:42:28.018Z,2.00
2023-03-17T15:45:00.099Z,2.30
2023-03-17T15:47:29.307Z,2.40
2023-03-17T15:49:59.368Z,2.00
2023-03-17T15:52:28.759Z,2.47
2023-03-17T15:54:58.083Z,2.63
2023-03-17T15:57:27.241Z,2.63
2023-03-17T15:59:55.703Z,4.47
2023-03-17T16:02:30.502Z,4.20
2023-03-17T16:04:59.303Z,3.90
2023-03-17T16:07:28.514Z,6.50
2023-03-17T16:09:57.000Z,4.70
2023-03-17T16:12:25.564Z,3.33
2023-03-17T16:14:53.956Z,4.90
2023-03-17T16:17:26.991Z,3.10
2023-03-17T16:19:57.039Z,3.33
2023-03-17T16:22:46.818Z,3.90
2023-03-17T16:25:26.064Z,4.07
2023-03-17T16:27:55.509Z,3.13
2023-03-17T16:30:24.647Z,3.37
2023-03-17T16:32:53.178Z,3.03
2023-03-17T16:35:24.182Z,4.13
2023-03-17T16:37:54.303Z,3.70
2023-03-17T16:40:24.127Z,3.90
2023-03-17T16:42:52.686Z,4.43
2023-03-17T16:45:28.142Z,8.70
2023-03-17T16:47:57.029Z,6.07
2023-03-17T16:50:28.455Z,3.67
2023-03-17T16:52:56.781Z,7.13
2023-03-17T16:55:27.062Z,4.90
2023-03-17T16:57:57.501Z,5.77
2023-03-17T17:00:26.606Z,3.43
2023-03-17T17:02:55.369Z,3.20
2023-03-17T17:05:24.643Z,3.47
2023-03-17T17:07:56.308Z,2.33
2023-03-17T17:10:25.340Z,2.37
2023-03-17T17:12:53.730Z,3.00
2023-03-17T17:15:23.117Z,2.90
2023-03-17T17:17:52.418Z,4.73
2023-03-17T17:20:22.041Z,3.37
2023-03-17T17:22:50.764Z,4.50
2023-03-17T17:25:20.624Z,4.20
2023-03-17T17:27:49.474Z,3.70
2023-03-17T17:30:19.538Z,3.33
2023-03-17T17:32:48.573Z,4.37
2023-03-17T17:35:17.418Z,6.30
2023-03-17T17:37:46.000Z,5.20
2023-03-17T17:40:15.569Z,3.57
2023-03-17T17:42:46.303Z,4.50
2023-03-17T17:45:15.288Z,4.30
2023-03-17T17:47:43.808Z,7.70
2023-03-17T17:50:14.243Z,5.20
2023-03-17T17:52:42.672Z,4.53
2023-03-17T17:55:11.197Z,3.67
2023-03-17T17:57:39.687Z,3.90
2023-03-17T18:00:10.981Z,5.10
2023-03-17T18:02:39.420Z,5.57
2023-03-17T18:05:09.065Z,15.63
2023-03-17T18:07:37.432Z,11.40
2023-03-17T18:10:06.187Z,7.77
2023-03-17T18:12:34.591Z,9.67
2023-03-17T18:15:03.035Z,4.60
2023-03-17T18:17:32.760Z,3.97
2023-03-17T18:20:01.151Z,6.43
2023-03-17T18:22:29.761Z,4.87
2023-03-17T18:24:58.147Z,5.17
2023-03-17T18:27:26.484Z,6.07
2023-03-17T18:29:56.892Z,4.97
2023-03-17T18:32:25.294Z,4.50
2023-03-17T18:34:55.228Z,5.10
2023-03-17T18:37:24.083Z,3.93
2023-03-17T18:40:09.863Z,2.83
2023-03-17T18:42:40.573Z,2.50
2023-03-17T18:45:09.882Z,2.97
2023-03-17T18:47:41.961Z,5.23
2023-03-17T18:50:13.233Z,2.77
2023-03-17T18:52:42.735Z,3.10
2023-03-17T18:55:11.730Z,4.57
2023-03-17T18:57:43.109Z,4.50
2023-03-17T19:00:13.890Z,4.60
2023-03-17T19:02:42.402Z,4.70
2023-03-17T19:05:12.805Z,4.20
2023-03-17T19:07:41.931Z,7.53
2023-03-17T19:10:10.790Z,2.97
2023-03-17T19:12:39.814Z,2.83
2023-03-17T19:15:08.879Z,2.70
2023-03-17T19:17:37.437Z,3.60
2023-03-17T19:20:06.097Z,4.23
2023-03-17T19:22:35.832Z,5.40
2023-03-17T19:25:04.541Z,5.40
2023-03-17T19:27:32.890Z,3.17
2023-03-17T19:30:01.501Z,5.07
2023-03-17T19:32:29.894Z,3.93
2023-03-17T19:34:58.315Z,3.80
2023-03-17T19:37:27.042Z,4.40
2023-03-17T19:39:56.763Z,3.83
2023-03-17T19:42:25.094Z,3.90
2023-03-17T19:44:53.375Z,3.43
2023-03-17T19:47:21.877Z,3.40
2023-03-17T19:49:50.146Z,2.60
2023-03-17T19:52:18.750Z,2.73
2023-03-17T19:54:47.187Z,4.13
2023-03-17T19:57:19.108Z,7.20
2023-03-17T19:59:47.436Z,6.70
2023-03-17T20:02:16.695Z,4.50
2023-03-17T20:04:45.595Z,2.50
2023-03-17T20:07:14.071Z,5.03
2023-03-17T20:09:44.636Z,5.90
2023-03-17T20:12:13.013Z,10.03
2023-03-17T20:14:42.853Z,9.00
2023-03-17T20:17:12.082Z,5.07
2023-03-17T20:19:40.498Z,3.50
2023-03-17T20:22:09.190Z,4.70
2023-03-17T20:24:38.270Z,3.10
2023-03-17T20:27:08.094Z,5.77
2023-03-17T20:29:36.488Z,4.03
2023-03-17T20:32:06.334Z,3.37
2023-03-17T20:34:34.967Z,3.40
2023-03-17T20:37:03.912Z,3.23
2023-03-17T20:39:32.462Z,2.43
2023-03-17T20:42:02.223Z,3.27
2023-03-17T20:44:30.847Z,3.03
2023-03-17T20:46:59.268Z,2.40
2023-03-17T20:49:29.875Z,2.80
2023-03-17T20:51:58.492Z,3.00
2023-03-17T20:54:26.971Z,3.87
2023-03-17T20:56:56.752Z,3.93
2023-03-17T20:59:26.134Z,3.50
2023-03-17T21:01:54.754Z,3.73
2023-03-17T21:04:23.193Z,4.23
2023-03-17T21:06:53.427Z,2.80
2023-03-17T21:09:21.897Z,5.13
2023-03-17T21:11:50.326Z,5.63
2023-03-17T21:14:18.781Z,7.43
2023-03-17T21:16:47.415Z,3.43
2023-03-17T21:19:17.289Z,6.13
2023-03-17T21:21:45.799Z,4.20
2023-03-17T21:24:24.005Z,4.07
2023-03-17T21:26:52.433Z,3.70
2023-03-17T21:29:20.956Z,4.90
2023-03-17T21:31:49.371Z,7.73
2023-03-17T21:34:17.917Z,3.90
2023-03-17T21:36:46.502Z,3.77
2023-03-17T21:39:15.116Z,4.23
2023-03-17T21:41:46.239Z,6.60
2023-03-17T21:44:15.961Z,6.53
2023-03-17T21:46:44.433Z,5.13
2023-03-17T21:49:13.252Z,5.37
2023-03-17T21:51:41.635Z,7.80
2023-03-17T21:54:10.623Z,6.73
2023-03-17T21:56:39.574Z,4.87
2023-03-17T21:59:10.967Z,5.53
2023-03-17T22:01:39.720Z,5.20
2023-03-17T22:04:08.353Z,7.30
2023-03-17T22:06:36.722Z,3.57
2023-03-17T22:09:05.458Z,4.73
2023-03-17T22:11:33.991Z,4.30
2023-03-17T22:14:02.425Z,4.77
2023-03-17T22:16:32.267Z,7.20
2023-03-17T22:19:00.711Z,4.23
2023-03-17T22:21:29.864Z,3.33
2023-03-17T22:23:58.622Z,5.40
2023-03-17T22:26:27.797Z,4.43
2023-03-17T22:28:56.454Z,4.23
2023-03-17T22:31:26.256Z,3.67
2023-03-17T22:33:56.728Z,4.50
2023-03-17T22:36:25.781Z,6.23
2023-03-17T22:38:54.434Z,4.00
2023-03-17T22:41:23.862Z,3.93
2023-03-17T22:43:52.802Z,5.17
2023-03-17T22:46:22.220Z,5.80
2023-03-17T22:48:50.875Z,5.63
2023-03-17T22:51:21.463Z,4.80
2023-03-17T22:53:50.298Z,3.97
2023-03-17T22:56:19.284Z,4.80
2023-03-17T22:58:47.992Z,4.70
2023-03-17T23:01:17.270Z,4.73
2023-03-17T23:03:46.199Z,5.53
2023-03-17T23:06:14.916Z,5.93
2023-03-17T23:08:45.842Z,4.50
2023-03-17T23:11:16.342Z,5.23
2023-03-17T23:13:45.246Z,4.83
2023-03-17T23:16:13.718Z,5.20
2023-03-17T23:18:43.629Z,5.60
2023-03-17T23:21:17.110Z,4.70
2023-03-17T23:23:47.213Z,5.13
2023-03-17T23:26:15.590Z,5.93
2023-03-17T23:28:44.411Z,6.20
2023-03-17T23:31:12.817Z,5.60
2023-03-17T23:33:41.259Z,8.00
2023-03-17T23:36:10.176Z,6.07
2023-03-17T23:38:38.460Z,5.93
2023-03-17T23:41:08.468Z,5.67
2023-03-17T23:43:37.503Z,5.37
2023-03-17T23:46:06.108Z,4.93
2023-03-17T23:48:34.666Z,5.47
2023-03-17T23:51:03.357Z,6.13
2023-03-17T23:53:32.875Z,6.83
2023-03-17T23:56:01.384Z,4.77
2023-03-17T23:58:32.008Z,5.83
